Time;durP1;ratioP1;P1;durP2;ratioP2;P2;SDS_P1;SDS_P2;PMS_P1;PMS_P2;Temp;Humidity;BMP_temperature;BMP_pressure;BME280_temperature;BME280_humidity;BME280_pressure;Samples;Min_cycle;Max_cycle;Signal;HPM_P1;HPM_P2
2020/12/22 00:01:08;;;;;;;43.72;26.40;;;;;;;;;;5055494;28;20107;-66
2020/12/22 00:03:34;;;;;;;44.42;26.35;;;;;;;;;;5073478;28;20575;-64
2020/12/22 00:05:59;;;;;;;44.78;26.63;;;;;;;;;;5073454;28;20025;-65
2020/12/22 00:08:25;;;;;;;47.22;26.30;;;;;;;;;;5073083;28;20036;-65
2020/12/22 00:10:53;;;;;;;43.25;26.02;;;;;;;;;;5073441;28;20040;-65
2020/12/22 00:13:18;;;;;;;45.47;27.27;;;;;;;;;;5073729;28;20414;-65
2020/12/22 00:15:44;;;;;;;46.58;27.40;;;;;;;;;;5055439;28;20178;-66
2020/12/22 00:18:11;;;;;;;42.55;27.27;;;;;;;;;;5073595;28;20062;-65
2020/12/22 00:20:36;;;;;;;45.63;27.00;;;;;;;;;;5073346;28;20039;-66
2020/12/22 00:23:02;;;;;;;45.22;27.13;;;;;;;;;;5073529;28;20041;-66
2020/12/22 00:25:27;;;;;;;47.92;27.95;;;;;;;;;;5055388;28;20039;-66
2020/12/22 00:27:53;;;;;;;45.65;28.42;;;;;;;;;;5073408;28;20055;-66
2020/12/22 00:30:18;;;;;;;45.25;27.15;;;;;;;;;;5055386;28;20031;-66
2020/12/22 00:32:44;;;;;;;45.83;27.23;;;;;;;;;;5073319;28;20048;-66
2020/12/22 00:35:11;;;;;;;44.50;27.65;;;;;;;;;;5073288;28;20036;-65
2020/12/22 00:37:36;;;;;;;44.38;26.85;;;;;;;;;;5073249;28;20036;-64
2020/12/22 00:40:03;;;;;;;41.10;25.50;;;;;;;;;;5073356;28;20111;-65
2020/12/22 00:42:31;;;;;;;42.50;26.40;;;;;;;;;;5073392;28;20047;-65
2020/12/22 00:44:58;;;;;;;47.60;27.48;;;;;;;;;;5073138;28;20029;-66
2020/12/22 00:47:24;;;;;;;44.13;27.58;;;;;;;;;;5073145;28;20131;-65
2020/12/22 00:49:49;;;;;;;43.47;26.58;;;;;;;;;;5055064;28;20107;-65
2020/12/22 00:52:16;;;;;;;43.05;26.75;;;;;;;;;;5073137;28;20516;-66
2020/12/22 00:54:41;;;;;;;42.33;26.52;;;;;;;;;;5054959;28;20032;-66
2020/12/22 00:57:07;;;;;;;45.90;26.38;;;;;;;;;;5071642;28;20439;-66
2020/12/22 00:59:46;;;;;;;44.28;26.92;;;;;;;;;;5054985;28;20036;-65
2020/12/22 01:02:12;;;;;;;45.47;27.02;;;;;;;;;;5072808;28;20040;-66
2020/12/22 01:04:37;;;;;;;45.28;27.10;;;;;;;;;;5073153;28;20020;-65
2020/12/22 01:07:03;;;;;;;46.30;28.13;;;;;;;;;;5055413;28;20474;-65
2020/12/22 01:09:28;;;;;;;43.97;26.60;;;;;;;;;;5072868;28;20128;-65
2020/12/22 01:11:54;;;;;;;46.22;27.88;;;;;;;;;;5055182;28;20051;-65
2020/12/22 01:14:19;;;;;;;47.63;27.13;;;;;;;;;;5072657;28;20044;-65
2020/12/22 01:16:45;;;;;;;46.67;27.42;;;;;;;;;;5072658;28;20090;-64
2020/12/22 01:19:10;;;;;;;45.97;27.75;;;;;;;;;;5072960;28;20479;-64
2020/12/22 01:21:36;;;;;;;45.65;27.77;;;;;;;;;;5073058;28;20060;-64
2020/12/22 01:24:04;;;;;;;46.92;28.33;;;;;;;;;;5072687;28;20032;-64
2020/12/22 01:26:30;;;;;;;44.40;26.90;;;;;;;;;;5072793;28;20040;-64
2020/12/22 01:28:56;;;;;;;42.30;26.67;;;;;;;;;;5076755;28;20025;-64
2020/12/22 01:31:22;;;;;;;40.30;27.17;;;;;;;;;;5058721;28;20043;-64
2020/12/22 01:33:47;;;;;;;43.60;27.38;;;;;;;;;;5076472;28;20031;-64
2020/12/22 01:36:13;;;;;;;51.40;30.00;;;;;;;;;;5076378;28;20047;-64
2020/12/22 01:38:38;;;;;;;47.80;28.05;;;;;;;;;;5058166;28;20111;-66
2020/12/22 01:41:04;;;;;;;45.88;27.40;;;;;;;;;;5076393;28;20045;-66
2020/12/22 01:43:29;;;;;;;45.85;27.08;;;;;;;;;;5076114;28;20017;-65
2020/12/22 01:45:55;;;;;;;43.47;26.60;;;;;;;;;;5076223;28;20127;-64
2020/12/22 01:48:21;;;;;;;45.33;27.35;;;;;;;;;;5076390;28;20024;-64
2020/12/22 01:50:46;;;;;;;46.20;28.15;;;;;;;;;;5076288;28;20028;-64
2020/12/22 01:53:12;;;;;;;43.33;26.45;;;;;;;;;;5041360;28;20440;-64
2020/12/22 01:55:42;;;;;;;46.85;27.55;;;;;;;;;;5075999;28;20072;-64
2020/12/22 01:58:07;;;;;;;44.45;27.10;;;;;;;;;;5075936;28;20041;-64
2020/12/22 02:00:33;;;;;;;41.75;25.95;;;;;;;;;;5074641;28;20029;-64
2020/12/22 02:02:58;;;;;;;46.88;26.85;;;;;;;;;;5075991;28;20031;-64
2020/12/22 02:05:24;;;;;;;41.58;25.90;;;;;;;;;;5057944;28;20040;-66
2020/12/22 02:07:49;;;;;;;41.63;24.88;;;;;;;;;;5057142;28;20449;-66
2020/12/22 02:10:15;;;;;;;42.80;25.73;;;;;;;;;;5076122;28;20142;-66
2020/12/22 02:12:41;;;;;;;42.75;25.48;;;;;;;;;;5075848;28;20033;-65
2020/12/22 02:15:07;;;;;;;41.13;25.42;;;;;;;;;;5057579;28;20072;-65
2020/12/22 02:17:34;;;;;;;42.47;25.95;;;;;;;;;;5075772;28;20027;-65
2020/12/22 02:19:59;;;;;;;42.50;25.90;;;;;;;;;;5075392;28;20047;-65
2020/12/22 02:22:25;;;;;;;41.63;25.58;;;;;;;;;;5075585;28;20021;-65
2020/12/22 02:24:50;;;;;;;40.65;25.27;;;;;;;;;;5075544;28;20033;-65
2020/12/22 02:27:16;;;;;;;41.58;25.13;;;;;;;;;;5075359;28;20536;-65
2020/12/22 02:29:41;;;;;;;39.88;25.02;;;;;;;;;;5075591;28;20394;-65
2020/12/22 02:32:07;;;;;;;40.67;25.10;;;;;;;;;;5075392;28;20029;-65
2020/12/22 02:34:32;;;;;;;40.50;24.85;;;;;;;;;;5057233;28;20036;-65
2020/12/22 02:36:57;;;;;;;39.13;24.38;;;;;;;;;;5075314;28;20064;-65
2020/12/22 02:39:23;;;;;;;40.13;24.77;;;;;;;;;;5073945;28;20041;-66
2020/12/22 02:41:49;;;;;;;39.60;24.33;;;;;;;;;;5075565;28;20060;-65
2020/12/22 02:44:15;;;;;;;42.45;25.42;;;;;;;;;;5057262;28;20433;-65
2020/12/22 02:46:40;;;;;;;41.25;25.10;;;;;;;;;;5075144;28;20024;-65
2020/12/22 02:49:06;;;;;;;40.40;24.60;;;;;;;;;;5074875;28;20036;-65
2020/12/22 02:51:31;;;;;;;40.08;24.85;;;;;;;;;;5074945;28;20025;-65
2020/12/22 02:53:57;;;;;;;38.30;25.42;;;;;;;;;;5074825;28;20486;-65
2020/12/22 02:56:22;;;;;;;36.85;24.17;;;;;;;;;;5074795;28;20103;-64
2020/12/22 02:58:51;;;;;;;40.33;23.95;;;;;;;;;;5057128;28;20036;-64
2020/12/22 03:01:17;;;;;;;38.55;23.90;;;;;;;;;;5056690;28;20031;-65
2020/12/22 03:03:43;;;;;;;38.47;22.90;;;;;;;;;;5074732;28;20037;-64
2020/12/22 03:06:09;;;;;;;37.25;23.00;;;;;;;;;;5074848;28;20048;-64
2020/12/22 03:08:35;;;;;;;42.28;24.42;;;;;;;;;;5073817;28;20028;-64
2020/12/22 03:11:00;;;;;;;38.25;23.25;;;;;;;;;;5056880;28;20036;-65
2020/12/22 03:13:26;;;;;;;35.72;23.88;;;;;;;;;;5074311;28;20028;-66
2020/12/22 03:15:51;;;;;;;39.38;22.95;;;;;;;;;;5074785;28;20391;-65
2020/12/22 03:18:18;;;;;;;35.78;22.15;;;;;;;;;;5056394;28;20064;-65
2020/12/22 03:20:44;;;;;;;33.67;21.92;;;;;;;;;;5074368;28;20036;-64
2020/12/22 03:23:10;;;;;;;33.78;22.08;;;;;;;;;;5074390;28;20128;-64
2020/12/22 03:25:35;;;;;;;33.25;21.23;;;;;;;;;;5056564;28;20112;-65
2020/12/22 03:28:01;;;;;;;33.38;21.63;;;;;;;;;;5056485;28;20041;-64
2020/12/22 03:30:26;;;;;;;34.42;21.75;;;;;;;;;;5074102;28;20037;-65
2020/12/22 03:32:52;;;;;;;32.80;19.80;;;;;;;;;;5039781;28;20040;-64
2020/12/22 03:35:17;;;;;;;32.00;20.88;;;;;;;;;;5074072;28;20478;-65
2020/12/22 03:37:43;;;;;;;33.90;21.40;;;;;;;;;;5074032;28;20059;-66
2020/12/22 03:40:08;;;;;;;30.30;20.42;;;;;;;;;;5056343;28;20473;-65
2020/12/22 03:42:34;;;;;;;31.52;20.20;;;;;;;;;;5055979;28;20048;-65
2020/12/22 03:45:00;;;;;;;33.38;20.70;;;;;;;;;;5074062;28;20031;-65
2020/12/22 03:47:26;;;;;;;32.33;20.55;;;;;;;;;;5074182;28;20059;-65
2020/12/22 03:49:51;;;;;;;29.83;20.63;;;;;;;;;;5073419;28;20043;-65
2020/12/22 03:52:17;;;;;;;31.13;20.77;;;;;;;;;;5073721;28;20040;-65
2020/12/22 03:54:43;;;;;;;30.00;20.38;;;;;;;;;;5073700;28;20032;-66
2020/12/22 03:57:08;;;;;;;33.45;20.77;;;;;;;;;;5073590;28;20041;-65
2020/12/22 03:59:38;;;;;;;33.72;20.38;;;;;;;;;;5073717;28;20367;-66
2020/12/22 04:02:04;;;;;;;35.63;19.75;;;;;;;;;;5038923;28;20040;-65
2020/12/22 04:04:31;;;;;;;30.33;19.42;;;;;;;;;;5039018;28;20033;-65
2020/12/22 04:06:56;;;;;;;28.95;20.15;;;;;;;;;;5055886;28;20041;-64
2020/12/22 04:09:22;;;;;;;32.72;21.42;;;;;;;;;;5072076;28;20050;-65
2020/12/22 04:11:48;;;;;;;31.70;20.83;;;;;;;;;;5055727;28;20044;-65
2020/12/22 04:14:14;;;;;;;37.95;24.40;;;;;;;;;;5073262;28;20143;-65
2020/12/22 04:16:40;;;;;;;39.03;23.55;;;;;;;;;;5073270;28;20518;-64
2020/12/22 04:19:06;;;;;;;36.97;22.40;;;;;;;;;;5073581;28;20028;-65
2020/12/22 04:21:32;;;;;;;42.75;26.70;;;;;;;;;;5055362;28;20048;-64
2020/12/22 04:23:57;;;;;;;58.72;35.17;;;;;;;;;;5073804;28;20033;-65
2020/12/22 04:26:23;;;;;;;45.83;27.60;;;;;;;;;;5073624;28;20048;-64
2020/12/22 04:28:48;;;;;;;35.05;22.75;;;;;;;;;;5073622;28;20051;-64
2020/12/22 04:31:14;;;;;;;33.55;23.02;;;;;;;;;;5073380;28;20126;-64
2020/12/22 04:33:41;;;;;;;40.00;25.10;;;;;;;;;;5073475;28;20036;-64
2020/12/22 04:36:06;;;;;;;40.63;24.70;;;;;;;;;;5073423;28;20182;-64
2020/12/22 04:38:32;;;;;;;37.40;23.48;;;;;;;;;;5073588;28;20483;-65
2020/12/22 04:41:02;;;;;;;44.80;26.58;;;;;;;;;;5073110;28;20135;-65
2020/12/22 04:43:29;;;;;;;38.15;23.88;;;;;;;;;;5055349;28;20090;-65
2020/12/22 04:46:03;;;;;;;41.38;25.67;;;;;;;;;;5055103;28;20075;-65
2020/12/22 04:48:32;;;;;;;46.35;28.40;;;;;;;;;;5072986;28;20055;-65
2020/12/22 04:51:00;;;;;;;40.47;26.38;;;;;;;;;;5055270;28;20033;-64
2020/12/22 04:53:26;;;;;;;48.53;31.55;;;;;;;;;;5073038;28;20046;-65
2020/12/22 04:55:52;;;;;;;44.10;26.52;;;;;;;;;;5073028;28;20037;-64
2020/12/22 04:58:17;;;;;;;41.38;24.80;;;;;;;;;;5073382;28;20119;-65
2020/12/22 05:00:43;;;;;;;39.20;23.80;;;;;;;;;;5072873;28;20031;-64
2020/12/22 05:03:11;;;;;;;35.08;23.33;;;;;;;;;;5075644;28;20044;-64
2020/12/22 05:05:36;;;;;;;37.80;24.88;;;;;;;;;;5076906;28;20020;-64
2020/12/22 05:08:02;;;;;;;36.80;23.70;;;;;;;;;;5076525;28;20434;-64
2020/12/22 05:10:27;;;;;;;36.55;24.05;;;;;;;;;;5077434;28;20729;-64
2020/12/22 05:12:53;;;;;;;35.97;22.80;;;;;;;;;;5076757;28;20036;-64
2020/12/22 05:15:18;;;;;;;37.47;24.20;;;;;;;;;;5076627;28;20032;-64
2020/12/22 05:17:45;;;;;;;39.78;24.63;;;;;;;;;;5076548;28;20045;-64
2020/12/22 05:20:13;;;;;;;39.45;24.70;;;;;;;;;;5076712;28;20036;-64
2020/12/22 05:22:38;;;;;;;35.95;23.92;;;;;;;;;;5075929;28;20068;-64
2020/12/22 05:25:05;;;;;;;37.33;24.38;;;;;;;;;;5057559;28;20118;-64
2020/12/22 05:27:31;;;;;;;35.08;23.30;;;;;;;;;;5075351;28;20166;-65
2020/12/22 05:30:00;;;;;;;36.05;24.05;;;;;;;;;;5075421;28;20035;-64
2020/12/22 05:32:27;;;;;;;42.25;24.92;;;;;;;;;;5075318;28;20048;-65
2020/12/22 05:34:53;;;;;;;41.33;24.63;;;;;;;;;;5075493;28;20118;-65
2020/12/22 05:37:21;;;;;;;36.83;22.98;;;;;;;;;;5058172;28;20060;-65
2020/12/22 05:39:47;;;;;;;38.88;23.65;;;;;;;;;;5058124;28;20025;-65
2020/12/22 05:42:14;;;;;;;33.25;23.10;;;;;;;;;;5076520;28;20119;-65
2020/12/22 05:44:49;;;;;;;31.65;22.10;;;;;;;;;;5076236;28;20021;-65
2020/12/22 05:47:19;;;;;;;34.83;23.23;;;;;;;;;;5058212;28;20483;-65
2020/12/22 05:49:54;;;;;;;38.10;23.67;;;;;;;;;;5076097;28;20517;-65
2020/12/22 05:52:21;;;;;;;37.17;24.25;;;;;;;;;;5076141;28;20094;-65
2020/12/22 05:54:50;;;;;;;39.15;24.58;;;;;;;;;;5076103;28;20032;-65
2020/12/22 05:57:18;;;;;;;38.97;26.60;;;;;;;;;;5076006;28;20067;-65
2020/12/22 05:59:44;;;;;;;40.78;26.92;;;;;;;;;;5076051;28;20028;-65
2020/12/22 06:02:09;;;;;;;36.78;25.50;;;;;;;;;;5058514;28;20120;-64
2020/12/22 06:04:35;;;;;;;43.42;28.77;;;;;;;;;;5041125;28;20025;-65
2020/12/22 06:07:02;;;;;;;43.70;29.65;;;;;;;;;;5075750;28;20059;-65
2020/12/22 06:09:27;;;;;;;45.17;30.98;;;;;;;;;;5074716;28;20090;-65
2020/12/22 06:11:58;;;;;;;44.95;29.35;;;;;;;;;;5074713;28;20120;-65
2020/12/22 06:14:24;;;;;;;42.10;28.02;;;;;;;;;;5074491;28;20269;-66
2020/12/22 06:16:50;;;;;;;45.20;29.00;;;;;;;;;;5074437;28;20159;-66
2020/12/22 06:19:17;;;;;;;46.22;28.85;;;;;;;;;;5056503;28;20033;-65
2020/12/22 06:21:42;;;;;;;47.65;29.50;;;;;;;;;;5074510;28;20082;-66
2020/12/22 06:24:12;;;;;;;46.80;28.77;;;;;;;;;;5074293;28;20463;-66
2020/12/22 06:26:37;;;;;;;48.67;28.98;;;;;;;;;;5074240;28;20479;-65
2020/12/22 06:29:12;;;;;;;51.22;29.63;;;;;;;;;;5056490;28;20094;-65
2020/12/22 06:31:38;;;;;;;50.53;29.05;;;;;;;;;;5056639;28;20067;-65
2020/12/22 06:34:22;;;;;;;49.17;29.63;;;;;;;;;;5074525;28;20025;-65
2020/12/22 06:36:57;;;;;;;55.78;31.23;;;;;;;;;;5056338;28;20037;-65
2020/12/22 06:39:42;;;;;;;78.32;38.17;;;;;;;;;;5074203;28;20041;-65
2020/12/22 06:42:08;;;;;;;68.53;33.47;;;;;;;;;;5074136;28;20083;-65
2020/12/22 06:44:35;;;;;;;75.28;36.67;;;;;;;;;;5073762;28;20021;-64
2020/12/22 06:47:03;;;;;;;88.45;46.88;;;;;;;;;;5074237;28;20392;-64
2020/12/22 06:50:01;;;;;;;97.63;55.25;;;;;;;;;;5074074;28;20078;-64
2020/12/22 06:52:29;;;;;;;84.28;50.35;;;;;;;;;;5029286;28;20123;-64
2020/12/22 06:54:55;;;;;;;61.45;37.13;;;;;;;;;;5073957;28;20564;-64
2020/12/22 06:57:39;;;;;;;58.00;35.90;;;;;;;;;;5073915;28;20036;-65
2020/12/22 07:00:05;;;;;;;59.20;37.45;;;;;;;;;;5074119;28;20131;-65
2020/12/22 07:02:37;;;;;;;79.47;50.08;;;;;;;;;;5055973;28;20108;-64
2020/12/22 07:05:04;;;;;;;76.95;48.13;;;;;;;;;;5088301;28;20044;-64
2020/12/22 07:07:53;;;;;;;81.05;50.97;;;;;;;;;;5070389;28;752621;-64
2020/12/22 07:10:20;;;;;;;84.28;52.08;;;;;;;;;;5094866;28;20075;-65
2020/12/22 07:12:46;;;;;;;86.82;53.72;;;;;;;;;;5094653;28;20071;-64
2020/12/22 07:15:12;;;;;;;75.72;46.15;;;;;;;;;;5076701;28;20448;-64
2020/12/22 07:17:37;;;;;;;67.40;43.28;;;;;;;;;;5094657;28;20062;-65
2020/12/22 07:20:03;;;;;;;65.43;41.88;;;;;;;;;;5094537;28;20120;-64
2020/12/22 07:22:28;;;;;;;61.78;40.25;;;;;;;;;;5094611;28;20020;-65
2020/12/22 07:24:54;;;;;;;55.45;36.25;;;;;;;;;;5093867;28;20036;-65
2020/12/22 07:27:19;;;;;;;56.75;35.88;;;;;;;;;;5094417;28;20029;-65
2020/12/22 07:29:45;;;;;;;51.88;31.23;;;;;;;;;;5076002;28;20051;-65
2020/12/22 07:32:11;;;;;;;50.83;32.20;;;;;;;;;;5076312;28;20034;-65
2020/12/22 07:34:37;;;;;;;46.95;30.98;;;;;;;;;;5076318;28;20058;-65
2020/12/22 07:37:06;;;;;;;46.13;26.65;;;;;;;;;;5093834;28;20028;-65
2020/12/22 07:39:33;;;;;;;41.13;25.03;;;;;;;;;;5076141;28;20473;-65
2020/12/22 07:42:10;;;;;;;44.72;28.00;;;;;;;;;;5094118;28;20059;-64
2020/12/22 07:44:36;;;;;;;56.75;31.05;;;;;;;;;;5094188;28;20028;-65
2020/12/22 07:47:02;;;;;;;70.70;38.78;;;;;;;;;;5075874;28;20031;-65
2020/12/22 07:49:28;;;;;;;78.57;39.95;;;;;;;;;;5093940;28;20114;-65
2020/12/22 07:51:53;;;;;;;77.35;40.15;;;;;;;;;;5093828;28;20028;-65
2020/12/22 07:54:19;;;;;;;81.75;40.55;;;;;;;;;;5093734;28;20081;-65
2020/12/22 07:56:45;;;;;;;76.75;38.08;;;;;;;;;;5093915;28;20501;-65
2020/12/22 07:59:11;;;;;;;72.35;35.90;;;;;;;;;;5093730;28;20162;-65
2020/12/22 08:05:13;;;;;;;52.00;29.13;;;;;;;;;;5094201;28;20113;-65
2020/12/22 08:14:50;;;;;;;69.85;35.40;;;;;;;;;;5074066;28;20036;-65
2020/12/22 08:20:55;;;;;;;62.22;36.35;;;;;;;;;;5073752;28;20137;-65
2020/12/22 08:26:56;;;;;;;60.42;33.65;;;;;;;;;;5073910;28;20027;-64
2020/12/22 08:32:58;;;;;;;53.38;31.38;;;;;;;;;;5073640;28;20134;-65
2020/12/22 08:39:12;;;;;;;45.92;26.80;;;;;;;;;;5073760;28;20383;-65
2020/12/22 08:45:13;;;;;;;37.00;22.13;;;;;;;;;;5073772;28;20109;-65
2020/12/22 08:51:23;;;;;;;42.85;24.65;;;;;;;;;;5073731;28;20059;-65
2020/12/22 08:57:24;;;;;;;49.10;28.05;;;;;;;;;;5073684;28;20196;-65
2020/12/22 08:59:49;;;;;;;54.88;30.80;;;;;;;;;;5055273;28;20549;-65
2020/12/22 09:02:29;;;;;;;56.90;33.45;;;;;;;;;;5072753;28;20447;-65
2020/12/22 09:04:55;;;;;;;47.00;28.98;;;;;;;;;;5072668;28;20036;-65
2020/12/22 09:07:23;;;;;;;35.85;22.00;;;;;;;;;;5072699;28;20051;-65
2020/12/22 09:09:48;;;;;;;33.40;21.00;;;;;;;;;;5073255;28;20037;-67
2020/12/22 09:12:14;;;;;;;26.45;17.52;;;;;;;;;;5093414;28;20059;-67
2020/12/22 09:14:43;;;;;;;28.50;17.17;;;;;;;;;;5093036;28;20040;-67
2020/12/22 09:17:09;;;;;;;31.48;18.05;;;;;;;;;;5093498;28;20037;-67
2020/12/22 09:19:48;;;;;;;33.72;18.42;;;;;;;;;;5092781;28;20090;-66
2020/12/22 09:22:15;;;;;;;35.75;18.63;;;;;;;;;;5092771;28;20090;-67
2020/12/22 09:24:41;;;;;;;32.75;19.17;;;;;;;;;;5074758;28;20055;-66
2020/12/22 09:27:07;;;;;;;35.90;19.17;;;;;;;;;;5092974;28;20085;-66
2020/12/22 09:29:35;;;;;;;38.75;21.50;;;;;;;;;;5092886;28;20020;-66
2020/12/22 09:32:00;;;;;;;35.88;19.27;;;;;;;;;;5074880;28;20401;-66
2020/12/22 09:34:26;;;;;;;35.35;20.08;;;;;;;;;;5074788;28;20111;-66
2020/12/22 09:36:53;;;;;;;31.83;19.17;;;;;;;;;;5092721;28;20490;-66
2020/12/22 09:39:19;;;;;;;33.03;20.38;;;;;;;;;;5092812;28;20025;-66
2020/12/22 09:41:45;;;;;;;26.10;17.13;;;;;;;;;;5092996;28;20569;-66
2020/12/22 09:44:10;;;;;;;22.55;14.07;;;;;;;;;;5092931;28;20112;-66
2020/12/22 09:46:37;;;;;;;21.92;15.35;;;;;;;;;;5096552;28;20047;-66
2020/12/22 09:49:03;;;;;;;21.48;15.07;;;;;;;;;;5079767;28;20035;-66
2020/12/22 09:51:30;;;;;;;29.70;17.55;;;;;;;;;;5116679;28;20040;-66
2020/12/22 09:53:55;;;;;;;29.38;17.83;;;;;;;;;;5116742;28;20110;-66
2020/12/22 09:56:21;;;;;;;31.83;18.40;;;;;;;;;;5116642;28;20397;-66
2020/12/22 09:58:46;;;;;;;30.95;18.98;;;;;;;;;;5097969;28;20028;-66
2020/12/22 10:01:12;;;;;;;32.50;19.13;;;;;;;;;;5116434;28;20039;-66
2020/12/22 10:03:37;;;;;;;31.45;19.75;;;;;;;;;;5116620;28;20490;-66
2020/12/22 10:06:03;;;;;;;32.25;19.48;;;;;;;;;;5116817;28;20031;-66
2020/12/22 10:08:28;;;;;;;38.78;24.08;;;;;;;;;;5116374;28;20024;-64
2020/12/22 10:10:54;;;;;;;41.63;24.77;;;;;;;;;;5115380;28;20085;-65
2020/12/22 10:13:19;;;;;;;38.15;24.17;;;;;;;;;;5116308;28;20070;-65
2020/12/22 10:15:45;;;;;;;32.85;21.10;;;;;;;;;;5116180;28;20084;-65
2020/12/22 10:18:11;;;;;;;28.70;17.75;;;;;;;;;;5116640;28;20038;-65
2020/12/22 10:20:37;;;;;;;28.83;16.95;;;;;;;;;;5097778;28;20040;-65
2020/12/22 10:23:03;;;;;;;29.40;18.15;;;;;;;;;;5116056;28;20477;-65
2020/12/22 10:25:28;;;;;;;33.47;23.50;;;;;;;;;;5116068;28;20398;-65
2020/12/22 10:27:54;;;;;;;47.40;34.50;;;;;;;;;;5095597;28;20028;-66
2020/12/22 10:30:19;;;;;;;43.67;27.00;;;;;;;;;;5065049;28;20068;-65
2020/12/22 10:32:45;;;;;;;53.17;31.00;;;;;;;;;;5087228;28;20031;-65
2020/12/22 10:35:10;;;;;;;66.47;35.67;;;;;;;;;;5086907;28;20038;-66
2020/12/22 10:37:36;;;;;;;63.65;35.50;;;;;;;;;;5077702;28;20482;-65
2020/12/22 10:40:01;;;;;;;64.47;35.13;;;;;;;;;;5084161;28;20072;-66
2020/12/22 10:42:27;;;;;;;46.50;27.65;;;;;;;;;;5056525;28;20097;-66
2020/12/22 10:44:53;;;;;;;38.03;22.23;;;;;;;;;;5075585;28;20067;-65
2020/12/22 10:47:18;;;;;;;28.60;18.80;;;;;;;;;;5077344;28;20037;-66
2020/12/22 10:49:44;;;;;;;30.13;20.48;;;;;;;;;;5074827;28;20033;-66
2020/12/22 10:52:09;;;;;;;39.33;23.45;;;;;;;;;;5074880;28;20111;-66
2020/12/22 10:54:35;;;;;;;79.05;42.55;;;;;;;;;;5074836;28;20036;-66
2020/12/22 10:57:01;;;;;;;56.75;33.72;;;;;;;;;;5074866;28;20376;-65
2020/12/22 10:59:26;;;;;;;26.50;17.65;;;;;;;;;;5073910;28;20043;-67
2020/12/22 11:01:53;;;;;;;24.90;16.40;;;;;;;;;;5074863;28;20462;-65
2020/12/22 11:04:18;;;;;;;25.27;17.02;;;;;;;;;;5040231;28;20025;-65
2020/12/22 11:09:12;;;;;;;24.50;16.27;;;;;;;;;;5074647;28;20036;-65
2020/12/22 11:11:41;;;;;;;32.10;18.98;;;;;;;;;;5056446;28;20506;-65
2020/12/22 11:14:07;;;;;;;40.20;24.45;;;;;;;;;;5074463;28;20040;-65
2020/12/22 11:16:32;;;;;;;35.28;22.58;;;;;;;;;;5074405;28;20105;-65
2020/12/22 11:18:58;;;;;;;35.58;21.80;;;;;;;;;;5074271;28;20032;-65
2020/12/22 11:21:24;;;;;;;35.10;22.05;;;;;;;;;;5056565;28;20548;-65
2020/12/22 11:23:50;;;;;;;36.38;23.13;;;;;;;;;;5074265;28;20510;-63
2020/12/22 11:26:19;;;;;;;42.60;24.52;;;;;;;;;;5074259;28;20028;-63
2020/12/22 11:28:45;;;;;;;50.95;30.40;;;;;;;;;;5074296;28;20082;-63
2020/12/22 11:31:10;;;;;;;41.63;25.25;;;;;;;;;;5039537;28;20024;-63
2020/12/22 11:33:37;;;;;;;37.45;23.40;;;;;;;;;;5056400;28;20451;-63
2020/12/22 11:36:02;;;;;;;42.03;25.48;;;;;;;;;;5073937;28;20494;-63
2020/12/22 11:38:28;;;;;;;38.90;25.02;;;;;;;;;;5073383;28;20037;-64
2020/12/22 11:40:53;;;;;;;47.15;25.17;;;;;;;;;;5056156;28;20071;-63
2020/12/22 11:43:19;;;;;;;42.72;25.52;;;;;;;;;;5073992;28;20037;-63
2020/12/22 11:45:44;;;;;;;40.33;24.77;;;;;;;;;;5055878;28;20055;-64
2020/12/22 11:48:10;;;;;;;36.83;23.27;;;;;;;;;;5073836;28;20052;-64
2020/12/22 11:50:35;;;;;;;34.97;23.30;;;;;;;;;;5073875;28;20020;-63
2020/12/22 11:53:01;;;;;;;38.88;24.05;;;;;;;;;;5073625;28;20067;-64
2020/12/22 11:55:26;;;;;;;38.75;24.35;;;;;;;;;;5073930;28;20426;-64
2020/12/22 11:57:52;;;;;;;40.80;25.23;;;;;;;;;;5073658;28;20190;-64
2020/12/22 12:00:17;;;;;;;39.83;25.08;;;;;;;;;;5073580;28;20033;-63
2020/12/22 12:02:43;;;;;;;41.70;25.15;;;;;;;;;;5073636;28;20037;-64
2020/12/22 12:05:08;;;;;;;45.72;27.08;;;;;;;;;;5073532;28;20032;-64
2020/12/22 12:07:34;;;;;;;43.95;26.77;;;;;;;;;;5073587;28;20127;-64
2020/12/22 12:10:01;;;;;;;41.90;26.30;;;;;;;;;;5073167;28;20050;-64
2020/12/22 12:12:28;;;;;;;44.15;27.58;;;;;;;;;;5055522;28;20047;-64
2020/12/22 12:14:53;;;;;;;66.05;38.17;;;;;;;;;;5073677;28;20043;-63
2020/12/22 12:17:19;;;;;;;49.00;29.33;;;;;;;;;;5073347;28;20486;-64
2020/12/22 12:19:44;;;;;;;41.65;25.25;;;;;;;;;;5073147;28;20090;-64
2020/12/22 12:22:10;;;;;;;39.13;24.75;;;;;;;;;;5073467;28;20115;-64
2020/12/22 12:24:36;;;;;;;35.10;23.52;;;;;;;;;;5073354;28;20094;-64
2020/12/22 12:27:01;;;;;;;35.33;24.17;;;;;;;;;;5073288;28;20033;-64
2020/12/22 12:29:26;;;;;;;38.67;23.90;;;;;;;;;;5073161;28;20029;-63
2020/12/22 12:31:52;;;;;;;41.20;25.13;;;;;;;;;;5072836;28;20029;-64
2020/12/22 12:34:17;;;;;;;40.25;25.73;;;;;;;;;;5073189;28;20427;-64
2020/12/22 12:36:43;;;;;;;41.83;25.27;;;;;;;;;;5073244;28;20033;-64
2020/12/22 12:39:09;;;;;;;41.88;26.60;;;;;;;;;;5073234;28;20025;-64
2020/12/22 12:41:34;;;;;;;42.53;25.80;;;;;;;;;;5072897;28;20406;-64
2020/12/22 12:44:00;;;;;;;40.03;23.55;;;;;;;;;;5072817;28;20103;-64
2020/12/22 12:46:25;;;;;;;37.10;23.75;;;;;;;;;;5054988;28;20108;-64
2020/12/22 12:48:51;;;;;;;38.35;23.45;;;;;;;;;;5073018;28;20097;-64
2020/12/22 12:51:16;;;;;;;39.95;24.73;;;;;;;;;;5073019;28;20123;-63
2020/12/22 12:53:42;;;;;;;42.10;25.50;;;;;;;;;;5055044;28;20023;-64
2020/12/22 12:56:11;;;;;;;39.90;25.00;;;;;;;;;;5072970;28;20040;-64
2020/12/22 12:58:37;;;;;;;42.10;25.50;;;;;;;;;;5072993;28;20033;-64
2020/12/22 13:01:02;;;;;;;42.58;25.45;;;;;;;;;;5054936;28;20490;-64
2020/12/22 13:03:28;;;;;;;31.20;19.02;;;;;;;;;;5073005;28;20031;-64
2020/12/22 13:05:53;;;;;;;36.45;22.50;;;;;;;;;;5072988;28;20051;-64
2020/12/22 13:08:19;;;;;;;38.63;24.65;;;;;;;;;;5073102;28;20060;-64
2020/12/22 13:10:44;;;;;;;37.95;25.38;;;;;;;;;;5072454;28;20123;-63
2020/12/22 13:13:10;;;;;;;46.38;28.20;;;;;;;;;;5072813;28;20036;-64
2020/12/22 13:15:36;;;;;;;28.17;18.48;;;;;;;;;;5072874;28;20036;-64
2020/12/22 13:18:01;;;;;;;32.00;21.00;;;;;;;;;;5055065;28;20048;-65
2020/12/22 13:20:26;;;;;;;37.17;24.77;;;;;;;;;;5072613;28;20068;-65
2020/12/22 13:22:52;;;;;;;37.90;24.13;;;;;;;;;;5073272;28;20029;-55
2020/12/22 13:25:17;;;;;;;28.98;18.48;;;;;;;;;;5076463;28;20032;-65
2020/12/22 13:27:43;;;;;;;35.33;22.83;;;;;;;;;;5076198;28;20075;-64
2020/12/22 13:30:09;;;;;;;42.65;23.52;;;;;;;;;;5076610;28;20032;-65
2020/12/22 13:32:35;;;;;;;50.95;28.10;;;;;;;;;;5076340;28;20036;-65
2020/12/22 13:35:00;;;;;;;28.88;18.25;;;;;;;;;;5076423;28;20166;-65
2020/12/22 13:37:26;;;;;;;26.40;16.95;;;;;;;;;;5076348;28;20086;-65
2020/12/22 13:39:51;;;;;;;24.58;16.02;;;;;;;;;;5076259;28;20055;-65
2020/12/22 13:42:17;;;;;;;24.17;15.10;;;;;;;;;;5079765;28;20089;-65
2020/12/22 13:44:42;;;;;;;27.45;16.85;;;;;;;;;;5088200;28;20501;-65
2020/12/22 13:47:09;;;;;;;26.98;15.50;;;;;;;;;;5079559;28;20036;-65
2020/12/22 13:49:34;;;;;;;35.72;19.92;;;;;;;;;;5096299;28;20016;-65
2020/12/22 13:52:00;;;;;;;34.35;20.08;;;;;;;;;;5096263;28;20504;-65
2020/12/22 13:54:25;;;;;;;33.22;18.48;;;;;;;;;;5096270;28;20465;-65
2020/12/22 13:56:51;;;;;;;19.48;12.32;;;;;;;;;;5077948;28;20036;-65
2020/12/22 13:59:16;;;;;;;22.55;13.15;;;;;;;;;;5096091;28;20035;-65
2020/12/22 14:01:42;;;;;;;19.90;12.80;;;;;;;;;;5096004;28;20810;-65
2020/12/22 14:04:07;;;;;;;18.48;12.18;;;;;;;;;;5096128;28;20055;-65
2020/12/22 14:06:33;;;;;;;20.80;13.35;;;;;;;;;;5093051;28;20028;-63
2020/12/22 14:08:59;;;;;;;15.73;11.32;;;;;;;;;;5077996;28;20028;-63
2020/12/22 14:11:26;;;;;;;16.08;8.63;;;;;;;;;;5094995;28;20121;-63
2020/12/22 14:13:52;;;;;;;16.40;10.50;;;;;;;;;;5095882;28;20190;-62
2020/12/22 14:16:17;;;;;;;14.75;10.15;;;;;;;;;;5095436;28;20533;-63
2020/12/22 14:18:45;;;;;;;16.65;11.60;;;;;;;;;;5094669;28;20117;-62
2020/12/22 14:21:14;;;;;;;15.75;9.80;;;;;;;;;;5094434;28;20113;-62
2020/12/22 14:23:40;;;;;;;24.17;13.40;;;;;;;;;;5095194;28;20059;-63
2020/12/22 14:26:06;;;;;;;20.23;12.88;;;;;;;;;;5082131;28;20073;-63
2020/12/22 14:28:31;;;;;;;15.45;9.55;;;;;;;;;;5084228;28;20033;-63
2020/12/22 14:30:57;;;;;;;16.98;11.35;;;;;;;;;;5085587;28;20039;-63
2020/12/22 14:33:24;;;;;;;12.75;8.85;;;;;;;;;;5085690;28;20097;-63
2020/12/22 14:35:50;;;;;;;13.57;8.45;;;;;;;;;;5083170;28;20032;-62
2020/12/22 14:38:16;;;;;;;11.95;8.25;;;;;;;;;;5081247;28;20569;-62
2020/12/22 14:40:41;;;;;;;11.75;8.23;;;;;;;;;;5091401;28;20131;-62
2020/12/22 14:43:08;;;;;;;13.02;9.18;;;;;;;;;;5074512;28;20044;-62
2020/12/22 14:45:34;;;;;;;12.43;7.88;;;;;;;;;;5074637;28;20042;-62
2020/12/22 14:47:59;;;;;;;13.55;9.73;;;;;;;;;;5074136;28;20546;-62
2020/12/22 14:50:25;;;;;;;11.15;8.02;;;;;;;;;;5074157;28;20043;-62
2020/12/22 14:52:50;;;;;;;11.23;7.45;;;;;;;;;;5074413;28;20051;-62